sensor_id;sensor_type;location;lat;lon;timestamp;P1;durP1;ratioP1;P2;durP2;ratioP2
26588;SDS011;14235;48.532;8.722;2023-01-29T00:01:27;12.50;;;10.07;;
26588;SDS011;14235;48.532;8.722;2023-01-29T00:03:52;9.27;;;7.87;;
26588;SDS011;14235;48.532;8.722;2023-01-29T00:06:18;13.47;;;9.67;;
26588;SDS011;14235;48.532;8.722;2023-01-29T00:08:44;11.17;;;8.70;;
26588;SDS011;14235;48.532;8.722;2023-01-29T00:11:10;11.13;;;9.20;;
26588;SDS011;14235;48.532;8.722;2023-01-29T00:13:36;11.40;;;8.33;;
26588;SDS011;14235;48.532;8.722;2023-01-29T00:16:02;10.47;;;8.00;;
26588;SDS011;14235;48.532;8.722;2023-01-29T00:18:28;9.87;;;8.07;;
26588;SDS011;14235;48.532;8.722;2023-01-29T00:20:55;9.47;;;7.80;;
26588;SDS011;14235;48.532;8.722;2023-01-29T00:23:21;9.83;;;8.40;;
26588;SDS011;14235;48.532;8.722;2023-01-29T00:25:47;10.40;;;8.13;;
26588;SDS011;14235;48.532;8.722;2023-01-29T00:28:13;10.33;;;8.43;;
26588;SDS011;14235;48.532;8.722;2023-01-29T00:30:39;9.13;;;7.57;;
26588;SDS011;14235;48.532;8.722;2023-01-29T00:33:05;9.30;;;7.40;;
26588;SDS011;14235;48.532;8.722;2023-01-29T00:35:31;9.43;;;7.70;;
26588;SDS011;14235;48.532;8.722;2023-01-29T00:37:58;12.20;;;8.70;;
26588;SDS011;14235;48.532;8.722;2023-01-29T00:40:24;11.27;;;8.83;;
26588;SDS011;14235;48.532;8.722;2023-01-29T00:42:50;11.60;;;8.77;;
26588;SDS011;14235;48.532;8.722;2023-01-29T00:45:34;8.47;;;7.17;;
26588;SDS011;14235;48.532;8.722;2023-01-29T00:48:01;8.97;;;7.60;;
26588;SDS011;14235;48.532;8.722;2023-01-29T00:50:28;10.20;;;7.90;;
26588;SDS011;14235;48.532;8.722;2023-01-29T00:52:54;11.07;;;8.57;;
26588;SDS011;14235;48.532;8.722;2023-01-29T00:55:20;10.90;;;8.00;;
26588;SDS011;14235;48.532;8.722;2023-01-29T00:57:46;7.70;;;6.90;;
26588;SDS011;14235;48.532;8.722;2023-01-29T01:00:13;8.67;;;7.30;;
26588;SDS011;14235;48.532;8.722;2023-01-29T01:02:40;7.37;;;6.47;;
26588;SDS011;14235;48.532;8.722;2023-01-29T01:05:24;7.00;;;5.67;;
26588;SDS011;14235;48.532;8.722;2023-01-29T01:07:51;7.00;;;5.80;;
26588;SDS011;14235;48.532;8.722;2023-01-29T01:10:19;6.33;;;5.73;;
26588;SDS011;14235;48.532;8.722;2023-01-29T01:12:49;5.20;;;4.63;;
26588;SDS011;14235;48.532;8.722;2023-01-29T01:15:23;5.43;;;4.93;;
26588;SDS011;14235;48.532;8.722;2023-01-29T01:17:54;5.53;;;4.80;;
26588;SDS011;14235;48.532;8.722;2023-01-29T01:20:22;4.90;;;4.50;;
26588;SDS011;14235;48.532;8.722;2023-01-29T01:22:48;5.33;;;4.83;;
26588;SDS011;14235;48.532;8.722;2023-01-29T01:25:14;5.47;;;4.97;;
26588;SDS011;14235;48.532;8.722;2023-01-29T01:27:40;5.63;;;5.10;;
26588;SDS011;14235;48.532;8.722;2023-01-29T01:30:11;5.73;;;5.17;;
26588;SDS011;14235;48.532;8.722;2023-01-29T01:32:38;4.60;;;4.20;;
26588;SDS011;14235;48.532;8.722;2023-01-29T01:35:04;4.70;;;4.30;;
26588;SDS011;14235;48.532;8.722;2023-01-29T01:37:30;5.47;;;4.97;;
26588;SDS011;14235;48.532;8.722;2023-01-29T01:39:56;5.30;;;4.80;;
26588;SDS011;14235;48.532;8.722;2023-01-29T01:42:31;5.53;;;5.03;;
26588;SDS011;14235;48.532;8.722;2023-01-29T01:45:01;5.07;;;4.57;;
26588;SDS011;14235;48.532;8.722;2023-01-29T01:47:34;5.20;;;4.70;;
26588;SDS011;14235;48.532;8.722;2023-01-29T01:50:06;5.03;;;4.63;;
26588;SDS011;14235;48.532;8.722;2023-01-29T01:52:49;4.67;;;4.27;;
26588;SDS011;14235;48.532;8.722;2023-01-29T01:55:19;4.37;;;3.97;;
26588;SDS011;14235;48.532;8.722;2023-01-29T01:57:49;5.40;;;4.27;;
26588;SDS011;14235;48.532;8.722;2023-01-29T02:00:20;4.83;;;4.40;;
26588;SDS011;14235;48.532;8.722;2023-01-29T02:02:49;4.67;;;4.27;;
26588;SDS011;14235;48.532;8.722;2023-01-29T02:05:35;6.77;;;4.67;;
26588;SDS011;14235;48.532;8.722;2023-01-29T02:08:31;5.00;;;4.50;;
26588;SDS011;14235;48.532;8.722;2023-01-29T02:11:19;4.90;;;4.50;;
26588;SDS011;14235;48.532;8.722;2023-01-29T02:13:45;5.40;;;4.90;;
26588;SDS011;14235;48.532;8.722;2023-01-29T02:16:11;5.00;;;4.60;;
26588;SDS011;14235;48.532;8.722;2023-01-29T02:18:37;5.07;;;4.67;;
26588;SDS011;14235;48.532;8.722;2023-01-29T02:21:06;4.83;;;4.43;;
26588;SDS011;14235;48.532;8.722;2023-01-29T02:28:46;6.30;;;5.10;;
26588;SDS011;14235;48.532;8.722;2023-01-29T02:36:40;5.77;;;5.27;;
26588;SDS011;14235;48.532;8.722;2023-01-29T02:39:14;5.60;;;5.00;;
26588;SDS011;14235;48.532;8.722;2023-01-29T02:41:57;5.90;;;5.30;;
26588;SDS011;14235;48.532;8.722;2023-01-29T02:52:14;5.90;;;5.30;;
26588;SDS011;14235;48.532;8.722;2023-01-29T02:54:43;5.43;;;4.93;;
26588;SDS011;14235;48.532;8.722;2023-01-29T02:57:20;5.77;;;5.10;;
26588;SDS011;14235;48.532;8.722;2023-01-29T03:00:33;5.93;;;5.33;;
26588;SDS011;14235;48.532;8.722;2023-01-29T03:05:20;7.07;;;5.53;;
26588;SDS011;14235;48.532;8.722;2023-01-29T03:07:49;5.40;;;4.90;;
26588;SDS011;14235;48.532;8.722;2023-01-29T03:10:22;5.73;;;5.17;;
26588;SDS011;14235;48.532;8.722;2023-01-29T03:12:53;5.73;;;5.20;;
26588;SDS011;14235;48.532;8.722;2023-01-29T03:15:22;5.77;;;5.03;;
26588;SDS011;14235;48.532;8.722;2023-01-29T03:18:05;5.13;;;4.70;;
26588;SDS011;14235;48.532;8.722;2023-01-29T03:20:32;5.80;;;5.30;;
26588;SDS011;14235;48.532;8.722;2023-01-29T03:23:01;5.60;;;4.80;;
26588;SDS011;14235;48.532;8.722;2023-01-29T03:25:28;5.47;;;4.97;;
26588;SDS011;14235;48.532;8.722;2023-01-29T03:28:17;5.20;;;4.70;;
26588;SDS011;14235;48.532;8.722;2023-01-29T03:31:05;6.30;;;5.70;;
26588;SDS011;14235;48.532;8.722;2023-01-29T03:34:08;5.63;;;5.13;;
26588;SDS011;14235;48.532;8.722;2023-01-29T03:36:43;5.87;;;5.27;;
26588;SDS011;14235;48.532;8.722;2023-01-29T03:39:19;5.93;;;5.33;;
26588;SDS011;14235;48.532;8.722;2023-01-29T03:44:37;6.00;;;5.10;;
26588;SDS011;14235;48.532;8.722;2023-01-29T03:52:53;5.70;;;5.00;;
26588;SDS011;14235;48.532;8.722;2023-01-29T03:57:57;5.60;;;5.00;;
26588;SDS011;14235;48.532;8.722;2023-01-29T04:00:40;7.70;;;4.77;;
26588;SDS011;14235;48.532;8.722;2023-01-29T04:05:57;6.10;;;5.50;;
26588;SDS011;14235;48.532;8.722;2023-01-29T04:09:00;5.80;;;5.20;;
26588;SDS011;14235;48.532;8.722;2023-01-29T04:11:23;5.67;;;5.07;;
26588;SDS011;14235;48.532;8.722;2023-01-29T04:13:51;5.97;;;4.97;;
26588;SDS011;14235;48.532;8.722;2023-01-29T04:16:21;5.40;;;4.93;;
26588;SDS011;14235;48.532;8.722;2023-01-29T04:18:51;5.90;;;5.30;;
26588;SDS011;14235;48.532;8.722;2023-01-29T04:21:18;5.53;;;5.03;;
26588;SDS011;14235;48.532;8.722;2023-01-29T04:23:44;5.03;;;4.53;;
26588;SDS011;14235;48.532;8.722;2023-01-29T04:34:21;6.13;;;5.53;;
26588;SDS011;14235;48.532;8.722;2023-01-29T04:39:48;7.20;;;4.77;;
26588;SDS011;14235;48.532;8.722;2023-01-29T04:45:19;4.80;;;4.40;;
26588;SDS011;14235;48.532;8.722;2023-01-29T04:47:59;5.00;;;4.60;;
26588;SDS011;14235;48.532;8.722;2023-01-29T04:53:09;4.80;;;4.40;;
26588;SDS011;14235;48.532;8.722;2023-01-29T04:55:39;4.83;;;4.33;;
26588;SDS011;14235;48.532;8.722;2023-01-29T04:58:20;4.90;;;4.43;;
26588;SDS011;14235;48.532;8.722;2023-01-29T05:00:47;4.47;;;4.07;;
26588;SDS011;14235;48.532;8.722;2023-01-29T05:03:15;5.20;;;4.67;;
26588;SDS011;14235;48.532;8.722;2023-01-29T05:05:45;5.30;;;4.77;;
26588;SDS011;14235;48.532;8.722;2023-01-29T05:08:13;4.43;;;4.10;;
26588;SDS011;14235;48.532;8.722;2023-01-29T05:10:40;4.57;;;4.27;;
26588;SDS011;14235;48.532;8.722;2023-01-29T05:13:08;5.17;;;4.73;;
26588;SDS011;14235;48.532;8.722;2023-01-29T05:15:38;5.20;;;4.70;;
26588;SDS011;14235;48.532;8.722;2023-01-29T05:18:08;5.23;;;4.73;;
26588;SDS011;14235;48.532;8.722;2023-01-29T05:20:35;5.63;;;5.13;;
26588;SDS011;14235;48.532;8.722;2023-01-29T05:23:03;6.73;;;5.30;;
26588;SDS011;14235;48.532;8.722;2023-01-29T05:25:33;5.43;;;4.93;;
26588;SDS011;14235;48.532;8.722;2023-01-29T05:27:59;5.87;;;5.27;;
26588;SDS011;14235;48.532;8.722;2023-01-29T05:30:47;5.53;;;5.03;;
26588;SDS011;14235;48.532;8.722;2023-01-29T05:33:15;6.53;;;5.40;;
26588;SDS011;14235;48.532;8.722;2023-01-29T05:35:42;6.27;;;5.67;;
26588;SDS011;14235;48.532;8.722;2023-01-29T05:38:08;6.37;;;5.77;;
26588;SDS011;14235;48.532;8.722;2023-01-29T05:40:34;5.87;;;5.27;;
26588;SDS011;14235;48.532;8.722;2023-01-29T05:43:00;5.53;;;5.03;;
26588;SDS011;14235;48.532;8.722;2023-01-29T05:45:26;6.67;;;5.00;;
26588;SDS011;14235;48.532;8.722;2023-01-29T05:47:58;6.80;;;5.50;;
26588;SDS011;14235;48.532;8.722;2023-01-29T05:50:25;5.50;;;4.90;;
26588;SDS011;14235;48.532;8.722;2023-01-29T05:52:57;6.00;;;5.40;;
26588;SDS011;14235;48.532;8.722;2023-01-29T05:55:24;5.50;;;5.00;;
26588;SDS011;14235;48.532;8.722;2023-01-29T05:57:50;5.43;;;5.03;;
26588;SDS011;14235;48.532;8.722;2023-01-29T06:00:16;6.17;;;5.57;;
26588;SDS011;14235;48.532;8.722;2023-01-29T06:02:42;7.13;;;5.77;;
26588;SDS011;14235;48.532;8.722;2023-01-29T06:05:07;6.17;;;5.57;;
26588;SDS011;14235;48.532;8.722;2023-01-29T06:07:33;6.30;;;5.70;;
26588;SDS011;14235;48.532;8.722;2023-01-29T06:09:59;6.23;;;5.63;;
26588;SDS011;14235;48.532;8.722;2023-01-29T06:12:25;7.00;;;5.87;;
26588;SDS011;14235;48.532;8.722;2023-01-29T06:14:51;6.10;;;5.60;;
26588;SDS011;14235;48.532;8.722;2023-01-29T06:17:17;6.13;;;5.53;;
26588;SDS011;14235;48.532;8.722;2023-01-29T06:19:43;7.17;;;6.20;;
26588;SDS011;14235;48.532;8.722;2023-01-29T06:22:08;6.60;;;6.00;;
26588;SDS011;14235;48.532;8.722;2023-01-29T06:24:34;6.90;;;6.20;;
26588;SDS011;14235;48.532;8.722;2023-01-29T06:26:59;6.93;;;6.23;;
26588;SDS011;14235;48.532;8.722;2023-01-29T06:29:25;6.53;;;5.93;;
26588;SDS011;14235;48.532;8.722;2023-01-29T06:31:51;6.77;;;6.17;;
26588;SDS011;14235;48.532;8.722;2023-01-29T06:34:17;6.87;;;6.20;;
26588;SDS011;14235;48.532;8.722;2023-01-29T06:36:43;6.87;;;6.27;;
26588;SDS011;14235;48.532;8.722;2023-01-29T06:39:09;7.63;;;6.83;;
26588;SDS011;14235;48.532;8.722;2023-01-29T06:41:36;7.40;;;6.70;;
26588;SDS011;14235;48.532;8.722;2023-01-29T06:44:02;8.10;;;7.10;;
26588;SDS011;14235;48.532;8.722;2023-01-29T06:46:28;8.40;;;7.50;;
26588;SDS011;14235;48.532;8.722;2023-01-29T06:48:56;9.73;;;7.47;;
26588;SDS011;14235;48.532;8.722;2023-01-29T06:51:23;7.70;;;6.73;;
26588;SDS011;14235;48.532;8.722;2023-01-29T06:53:49;7.27;;;6.57;;
26588;SDS011;14235;48.532;8.722;2023-01-29T06:56:21;32.20;;;22.80;;
26588;SDS011;14235;48.532;8.722;2023-01-29T06:58:48;15.10;;;12.80;;
26588;SDS011;14235;48.532;8.722;2023-01-29T07:01:14;11.33;;;10.23;;
26588;SDS011;14235;48.532;8.722;2023-01-29T07:03:40;9.63;;;8.63;;
26588;SDS011;14235;48.532;8.722;2023-01-29T07:06:13;9.97;;;7.27;;
26588;SDS011;14235;48.532;8.722;2023-01-29T07:08:40;9.40;;;8.17;;
26588;SDS011;14235;48.532;8.722;2023-01-29T07:11:05;8.00;;;7.20;;
26588;SDS011;14235;48.532;8.722;2023-01-29T07:13:32;8.43;;;7.40;;
26588;SDS011;14235;48.532;8.722;2023-01-29T07:15:59;7.53;;;6.73;;
26588;SDS011;14235;48.532;8.722;2023-01-29T07:18:26;7.93;;;7.13;;
26588;SDS011;14235;48.532;8.722;2023-01-29T07:20:53;11.50;;;8.53;;
26588;SDS011;14235;48.532;8.722;2023-01-29T07:23:20;8.90;;;7.77;;
26588;SDS011;14235;48.532;8.722;2023-01-29T07:25:46;13.30;;;9.33;;
26588;SDS011;14235;48.532;8.722;2023-01-29T07:28:14;12.37;;;10.17;;
26588;SDS011;14235;48.532;8.722;2023-01-29T07:30:40;9.03;;;8.13;;
26588;SDS011;14235;48.532;8.722;2023-01-29T07:33:06;10.27;;;8.47;;
26588;SDS011;14235;48.532;8.722;2023-01-29T07:35:36;8.97;;;8.13;;
26588;SDS011;14235;48.532;8.722;2023-01-29T07:38:03;9.10;;;8.07;;
26588;SDS011;14235;48.532;8.722;2023-01-29T07:40:29;10.50;;;8.93;;
26588;SDS011;14235;48.532;8.722;2023-01-29T07:42:58;8.53;;;7.73;;
26588;SDS011;14235;48.532;8.722;2023-01-29T07:45:24;9.50;;;8.30;;
26588;SDS011;14235;48.532;8.722;2023-01-29T07:47:53;9.67;;;8.67;;
26588;SDS011;14235;48.532;8.722;2023-01-29T07:50:23;11.50;;;10.30;;
26588;SDS011;14235;48.532;8.722;2023-01-29T07:52:49;10.63;;;8.97;;
26588;SDS011;14235;48.532;8.722;2023-01-29T07:55:15;8.23;;;7.30;;
26588;SDS011;14235;48.532;8.722;2023-01-29T07:57:42;8.30;;;7.50;;
26588;SDS011;14235;48.532;8.722;2023-01-29T08:00:08;7.90;;;7.10;;
26588;SDS011;14235;48.532;8.722;2023-01-29T08:02:35;7.93;;;7.20;;
26588;SDS011;14235;48.532;8.722;2023-01-29T08:05:02;7.77;;;7.00;;
26588;SDS011;14235;48.532;8.722;2023-01-29T08:07:28;8.03;;;7.23;;
26588;SDS011;14235;48.532;8.722;2023-01-29T08:09:54;8.00;;;7.20;;
26588;SDS011;14235;48.532;8.722;2023-01-29T08:12:20;7.90;;;7.10;;
26588;SDS011;14235;48.532;8.722;2023-01-29T08:14:46;7.67;;;6.87;;
26588;SDS011;14235;48.532;8.722;2023-01-29T08:17:12;7.97;;;7.17;;
26588;SDS011;14235;48.532;8.722;2023-01-29T08:19:38;7.67;;;6.97;;
26588;SDS011;14235;48.532;8.722;2023-01-29T08:22:04;7.67;;;6.87;;
26588;SDS011;14235;48.532;8.722;2023-01-29T08:24:30;7.33;;;6.63;;
26588;SDS011;14235;48.532;8.722;2023-01-29T08:26:56;8.00;;;7.20;;
26588;SDS011;14235;48.532;8.722;2023-01-29T08:29:22;8.57;;;7.67;;
26588;SDS011;14235;48.532;8.722;2023-01-29T08:31:48;7.30;;;6.60;;
26588;SDS011;14235;48.532;8.722;2023-01-29T08:34:14;9.10;;;6.87;;
26588;SDS011;14235;48.532;8.722;2023-01-29T08:36:40;8.17;;;7.20;;
26588;SDS011;14235;48.532;8.722;2023-01-29T08:39:06;8.17;;;6.80;;
26588;SDS011;14235;48.532;8.722;2023-01-29T08:41:32;7.50;;;6.77;;
26588;SDS011;14235;48.532;8.722;2023-01-29T08:43:58;8.30;;;7.30;;
26588;SDS011;14235;48.532;8.722;2023-01-29T08:46:26;7.53;;;6.77;;
26588;SDS011;14235;48.532;8.722;2023-01-29T08:48:52;7.23;;;6.53;;
26588;SDS011;14235;48.532;8.722;2023-01-29T08:51:19;7.63;;;6.83;;
26588;SDS011;14235;48.532;8.722;2023-01-29T08:53:45;7.37;;;6.60;;
26588;SDS011;14235;48.532;8.722;2023-01-29T08:56:11;8.17;;;7.07;;
26588;SDS011;14235;48.532;8.722;2023-01-29T08:58:37;8.30;;;7.40;;
26588;SDS011;14235;48.532;8.722;2023-01-29T09:01:07;7.93;;;6.93;;
26588;SDS011;14235;48.532;8.722;2023-01-29T09:03:34;8.10;;;6.97;;
26588;SDS011;14235;48.532;8.722;2023-01-29T09:06:00;7.40;;;6.53;;
26588;SDS011;14235;48.532;8.722;2023-01-29T09:08:26;7.37;;;6.67;;
26588;SDS011;14235;48.532;8.722;2023-01-29T09:10:52;8.60;;;7.27;;
26588;SDS011;14235;48.532;8.722;2023-01-29T09:13:18;7.27;;;6.57;;
26588;SDS011;14235;48.532;8.722;2023-01-29T09:15:44;7.60;;;6.40;;
26588;SDS011;14235;48.532;8.722;2023-01-29T09:18:10;8.10;;;6.97;;
26588;SDS011;14235;48.532;8.722;2023-01-29T09:20:36;7.40;;;6.70;;
26588;SDS011;14235;48.532;8.722;2023-01-29T09:23:06;7.97;;;7.17;;
26588;SDS011;14235;48.532;8.722;2023-01-29T09:25:34;8.60;;;7.70;;
26588;SDS011;14235;48.532;8.722;2023-01-29T09:28:00;9.27;;;7.77;;
26588;SDS011;14235;48.532;8.722;2023-01-29T09:30:26;8.20;;;6.83;;
26588;SDS011;14235;48.532;8.722;2023-01-29T09:32:52;8.43;;;6.37;;
26588;SDS011;14235;48.532;8.722;2023-01-29T09:35:20;6.97;;;6.27;;
26588;SDS011;14235;48.532;8.722;2023-01-29T09:37:49;7.57;;;6.63;;
26588;SDS011;14235;48.532;8.722;2023-01-29T09:40:25;7.13;;;6.43;;
26588;SDS011;14235;48.532;8.722;2023-01-29T09:43:39;7.37;;;6.67;;
26588;SDS011;14235;48.532;8.722;2023-01-29T09:45:43;7.63;;;6.93;;
26588;SDS011;14235;48.532;8.722;2023-01-29T09:48:10;7.30;;;6.60;;
26588;SDS011;14235;48.532;8.722;2023-01-29T09:50:38;7.33;;;6.60;;
26588;SDS011;14235;48.532;8.722;2023-01-29T09:58:31;8.83;;;7.10;;
26588;SDS011;14235;48.532;8.722;2023-01-29T10:13:53;8.53;;;7.07;;
26588;SDS011;14235;48.532;8.722;2023-01-29T10:19:18;7.63;;;6.53;;
26588;SDS011;14235;48.532;8.722;2023-01-29T10:27:10;7.47;;;6.70;;
26588;SDS011;14235;48.532;8.722;2023-01-29T10:29:41;9.10;;;7.53;;
26588;SDS011;14235;48.532;8.722;2023-01-29T10:32:10;9.20;;;7.30;;
26588;SDS011;14235;48.532;8.722;2023-01-29T10:34:42;8.70;;;6.87;;
26588;SDS011;14235;48.532;8.722;2023-01-29T10:37:15;7.20;;;6.50;;
26588;SDS011;14235;48.532;8.722;2023-01-29T10:39:49;7.57;;;6.77;;
26588;SDS011;14235;48.532;8.722;2023-01-29T10:45:12;7.17;;;6.47;;
26588;SDS011;14235;48.532;8.722;2023-01-29T10:47:57;7.70;;;6.90;;
26588;SDS011;14235;48.532;8.722;2023-01-29T10:50:51;6.97;;;6.27;;
26588;SDS011;14235;48.532;8.722;2023-01-29T10:56:21;8.13;;;6.77;;
26588;SDS011;14235;48.532;8.722;2023-01-29T10:59:11;7.53;;;6.73;;
26588;SDS011;14235;48.532;8.722;2023-01-29T11:01:45;7.80;;;7.00;;
26588;SDS011;14235;48.532;8.722;2023-01-29T11:04:10;9.17;;;7.40;;
26588;SDS011;14235;48.532;8.722;2023-01-29T11:06:37;7.33;;;6.63;;
26588;SDS011;14235;48.532;8.722;2023-01-29T11:09:11;6.53;;;5.93;;
26588;SDS011;14235;48.532;8.722;2023-01-29T11:17:17;8.90;;;8.00;;
26588;SDS011;14235;48.532;8.722;2023-01-29T11:19:46;8.33;;;6.63;;
26588;SDS011;14235;48.532;8.722;2023-01-29T11:22:15;6.83;;;6.23;;
26588;SDS011;14235;48.532;8.722;2023-01-29T11:24:45;7.53;;;6.77;;
26588;SDS011;14235;48.532;8.722;2023-01-29T11:27:19;7.73;;;6.93;;
26588;SDS011;14235;48.532;8.722;2023-01-29T11:29:53;8.83;;;7.20;;
26588;SDS011;14235;48.532;8.722;2023-01-29T11:37:50;7.53;;;6.70;;
26588;SDS011;14235;48.532;8.722;2023-01-29T11:42:47;7.67;;;6.80;;
26588;SDS011;14235;48.532;8.722;2023-01-29T11:47:54;8.07;;;7.17;;
26588;SDS011;14235;48.532;8.722;2023-01-29T11:50:22;8.67;;;7.10;;
26588;SDS011;14235;48.532;8.722;2023-01-29T11:52:49;8.20;;;7.30;;
26588;SDS011;14235;48.532;8.722;2023-01-29T11:55:19;7.80;;;6.97;;
26588;SDS011;14235;48.532;8.722;2023-01-29T11:57:49;7.30;;;6.60;;
26588;SDS011;14235;48.532;8.722;2023-01-29T12:02:51;8.10;;;7.03;;
26588;SDS011;14235;48.532;8.722;2023-01-29T12:05:23;9.73;;;7.40;;
26588;SDS011;14235;48.532;8.722;2023-01-29T12:07:51;8.07;;;7.27;;
26588;SDS011;14235;48.532;8.722;2023-01-29T12:10:35;8.00;;;7.07;;
26588;SDS011;14235;48.532;8.722;2023-01-29T12:15:41;9.07;;;8.07;;
26588;SDS011;14235;48.532;8.722;2023-01-29T12:20:43;9.47;;;7.70;;
26588;SDS011;14235;48.532;8.722;2023-01-29T12:36:39;8.50;;;7.30;;
26588;SDS011;14235;48.532;8.722;2023-01-29T12:39:42;8.27;;;7.47;;
26588;SDS011;14235;48.532;8.722;2023-01-29T12:42:18;8.43;;;7.20;;
26588;SDS011;14235;48.532;8.722;2023-01-29T12:44:48;8.23;;;7.37;;
26588;SDS011;14235;48.532;8.722;2023-01-29T12:47:34;7.53;;;6.73;;
26588;SDS011;14235;48.532;8.722;2023-01-29T12:50:23;8.23;;;7.37;;
26588;SDS011;14235;48.532;8.722;2023-01-29T12:52:56;7.77;;;7.00;;
26588;SDS011;14235;48.532;8.722;2023-01-29T12:55:43;7.60;;;6.80;;
26588;SDS011;14235;48.532;8.722;2023-01-29T12:58:18;8.27;;;7.33;;
26588;SDS011;14235;48.532;8.722;2023-01-29T13:01:13;7.63;;;6.30;;
26588;SDS011;14235;48.532;8.722;2023-01-29T13:06:25;7.30;;;6.60;;
26588;SDS011;14235;48.532;8.722;2023-01-29T13:08:57;9.10;;;7.47;;
26588;SDS011;14235;48.532;8.722;2023-01-29T13:11:40;9.63;;;7.03;;
26588;SDS011;14235;48.532;8.722;2023-01-29T13:14:24;7.33;;;6.63;;
26588;SDS011;14235;48.532;8.722;2023-01-29T13:17:13;8.30;;;7.27;;
26588;SDS011;14235;48.532;8.722;2023-01-29T13:20:02;9.37;;;6.97;;
26588;SDS011;14235;48.532;8.722;2023-01-29T13:22:55;7.57;;;6.77;;
26588;SDS011;14235;48.532;8.722;2023-01-29T13:25:26;7.83;;;7.03;;
26588;SDS011;14235;48.532;8.722;2023-01-29T13:27:51;7.30;;;6.60;;
26588;SDS011;14235;48.532;8.722;2023-01-29T13:30:22;8.50;;;7.13;;
26588;SDS011;14235;48.532;8.722;2023-01-29T13:32:53;8.23;;;6.63;;
26588;SDS011;14235;48.532;8.722;2023-01-29T13:35:32;7.60;;;6.80;;
26588;SDS011;14235;48.532;8.722;2023-01-29T13:38:03;8.23;;;7.20;;
26588;SDS011;14235;48.532;8.722;2023-01-29T13:40:30;7.77;;;7.07;;
26588;SDS011;14235;48.532;8.722;2023-01-29T13:42:58;7.57;;;6.80;;
26588;SDS011;14235;48.532;8.722;2023-01-29T13:48:16;8.20;;;6.93;;
26588;SDS011;14235;48.532;8.722;2023-01-29T13:50:47;7.70;;;6.90;;
26588;SDS011;14235;48.532;8.722;2023-01-29T13:53:23;8.60;;;6.33;;
26588;SDS011;14235;48.532;8.722;2023-01-29T13:55:51;7.20;;;6.50;;
26588;SDS011;14235;48.532;8.722;2023-01-29T13:58:51;8.67;;;6.87;;
26588;SDS011;14235;48.532;8.722;2023-01-29T14:01:02;8.20;;;7.30;;
26588;SDS011;14235;48.532;8.722;2023-01-29T14:05:57;7.97;;;6.80;;
26588;SDS011;14235;48.532;8.722;2023-01-29T14:13:44;8.47;;;7.50;;
26588;SDS011;14235;48.532;8.722;2023-01-29T14:18:43;9.30;;;7.87;;
26588;SDS011;14235;48.532;8.722;2023-01-29T14:31:30;7.27;;;6.53;;
26588;SDS011;14235;48.532;8.722;2023-01-29T14:33:59;7.60;;;6.40;;
26588;SDS011;14235;48.532;8.722;2023-01-29T14:36:27;8.27;;;7.37;;
26588;SDS011;14235;48.532;8.722;2023-01-29T14:38:53;7.60;;;6.80;;
26588;SDS011;14235;48.532;8.722;2023-01-29T14:44:45;7.87;;;7.07;;
26588;SDS011;14235;48.532;8.722;2023-01-29T14:47:16;7.13;;;6.00;;
26588;SDS011;14235;48.532;8.722;2023-01-29T14:52:39;7.80;;;6.20;;
26588;SDS011;14235;48.532;8.722;2023-01-29T14:57:51;6.87;;;6.17;;
26588;SDS011;14235;48.532;8.722;2023-01-29T15:00:43;8.33;;;6.07;;
26588;SDS011;14235;48.532;8.722;2023-01-29T15:03:18;6.53;;;5.93;;
26588;SDS011;14235;48.532;8.722;2023-01-29T15:05:44;7.57;;;6.20;;
26588;SDS011;14235;48.532;8.722;2023-01-29T15:10:55;6.70;;;6.10;;
26588;SDS011;14235;48.532;8.722;2023-01-29T15:14:00;6.30;;;5.70;;
26588;SDS011;14235;48.532;8.722;2023-01-29T15:16:41;5.80;;;5.30;;
26588;SDS011;14235;48.532;8.722;2023-01-29T15:19:14;6.67;;;5.90;;
26588;SDS011;14235;48.532;8.722;2023-01-29T15:24:32;6.93;;;5.97;;
26588;SDS011;14235;48.532;8.722;2023-01-29T15:26:59;6.43;;;5.83;;
26588;SDS011;14235;48.532;8.722;2023-01-29T15:29:26;6.63;;;5.97;;
26588;SDS011;14235;48.532;8.722;2023-01-29T15:31:52;6.67;;;5.93;;
26588;SDS011;14235;48.532;8.722;2023-01-29T15:34:19;6.60;;;5.47;;
26588;SDS011;14235;48.532;8.722;2023-01-29T15:36:46;6.93;;;5.60;;
26588;SDS011;14235;48.532;8.722;2023-01-29T15:39:14;10.17;;;7.53;;
26588;SDS011;14235;48.532;8.722;2023-01-29T15:41:43;12.90;;;8.93;;
26588;SDS011;14235;48.532;8.722;2023-01-29T15:44:19;5.97;;;5.37;;
26588;SDS011;14235;48.532;8.722;2023-01-29T15:46:47;6.37;;;5.07;;
26588;SDS011;14235;48.532;8.722;2023-01-29T15:49:19;5.20;;;4.70;;
26588;SDS011;14235;48.532;8.722;2023-01-29T15:51:53;5.47;;;4.97;;
26588;SDS011;14235;48.532;8.722;2023-01-29T15:54:28;6.30;;;4.80;;
26588;SDS011;14235;48.532;8.722;2023-01-29T15:56:55;4.90;;;4.40;;
26588;SDS011;14235;48.532;8.722;2023-01-29T15:59:24;7.07;;;4.60;;
26588;SDS011;14235;48.532;8.722;2023-01-29T16:01:53;4.83;;;4.40;;
26588;SDS011;14235;48.532;8.722;2023-01-29T16:04:26;7.03;;;5.07;;
26588;SDS011;14235;48.532;8.722;2023-01-29T16:06:54;7.77;;;5.07;;
26588;SDS011;14235;48.532;8.722;2023-01-29T16:09:22;6.40;;;5.03;;
26588;SDS011;14235;48.532;8.722;2023-01-29T16:11:50;6.37;;;4.50;;
26588;SDS011;14235;48.532;8.722;2023-01-29T16:14:18;6.47;;;5.63;;
26588;SDS011;14235;48.532;8.722;2023-01-29T16:16:46;8.97;;;7.53;;
26588;SDS011;14235;48.532;8.722;2023-01-29T16:19:19;12.37;;;8.37;;
26588;SDS011;14235;48.532;8.722;2023-01-29T16:21:56;11.47;;;8.53;;
26588;SDS011;14235;48.532;8.722;2023-01-29T16:24:24;9.93;;;7.67;;
26588;SDS011;14235;48.532;8.722;2023-01-29T16:27:01;7.23;;;6.23;;
26588;SDS011;14235;48.532;8.722;2023-01-29T16:29:32;7.63;;;6.40;;
26588;SDS011;14235;48.532;8.722;2023-01-29T16:32:10;11.27;;;7.50;;
26588;SDS011;14235;48.532;8.722;2023-01-29T16:34:41;7.60;;;6.80;;
26588;SDS011;14235;48.532;8.722;2023-01-29T16:37:16;7.33;;;6.57;;
26588;SDS011;14235;48.532;8.722;2023-01-29T16:39:44;7.10;;;6.00;;
26588;SDS011;14235;48.532;8.722;2023-01-29T16:47:25;5.60;;;5.00;;
26588;SDS011;14235;48.532;8.722;2023-01-29T16:49:57;8.53;;;6.30;;
26588;SDS011;14235;48.532;8.722;2023-01-29T16:52:53;8.57;;;7.17;;
26588;SDS011;14235;48.532;8.722;2023-01-29T16:55:40;7.67;;;6.30;;
26588;SDS011;14235;48.532;8.722;2023-01-29T16:58:18;7.43;;;6.00;;
26588;SDS011;14235;48.532;8.722;2023-01-29T17:00:46;6.30;;;5.50;;
26588;SDS011;14235;48.532;8.722;2023-01-29T17:03:32;6.00;;;5.27;;
26588;SDS011;14235;48.532;8.722;2023-01-29T17:06:08;5.87;;;5.27;;
26588;SDS011;14235;48.532;8.722;2023-01-29T17:08:46;5.53;;;5.00;;
26588;SDS011;14235;48.532;8.722;2023-01-29T17:11:12;5.70;;;5.13;;
26588;SDS011;14235;48.532;8.722;2023-01-29T17:13:57;5.63;;;4.97;;
26588;SDS011;14235;48.532;8.722;2023-01-29T17:16:25;6.77;;;5.20;;
26588;SDS011;14235;48.532;8.722;2023-01-29T17:18:51;7.13;;;5.70;;
26588;SDS011;14235;48.532;8.722;2023-01-29T17:21:17;8.33;;;6.90;;
26588;SDS011;14235;48.532;8.722;2023-01-29T17:23:43;7.83;;;7.03;;
26588;SDS011;14235;48.532;8.722;2023-01-29T17:26:10;7.83;;;6.60;;
26588;SDS011;14235;48.532;8.722;2023-01-29T17:28:37;7.53;;;5.87;;
26588;SDS011;14235;48.532;8.722;2023-01-29T17:31:03;6.83;;;5.67;;
26588;SDS011;14235;48.532;8.722;2023-01-29T17:33:29;5.60;;;5.00;;
26588;SDS011;14235;48.532;8.722;2023-01-29T17:35:54;5.20;;;4.40;;
26588;SDS011;14235;48.532;8.722;2023-01-29T17:38:20;5.47;;;4.73;;
26588;SDS011;14235;48.532;8.722;2023-01-29T17:40:51;4.73;;;4.23;;
26588;SDS011;14235;48.532;8.722;2023-01-29T17:43:21;4.63;;;4.23;;
26588;SDS011;14235;48.532;8.722;2023-01-29T17:45:47;5.40;;;4.57;;
26588;SDS011;14235;48.532;8.722;2023-01-29T17:48:13;5.03;;;4.47;;
26588;SDS011;14235;48.532;8.722;2023-01-29T17:50:42;5.50;;;4.97;;
26588;SDS011;14235;48.532;8.722;2023-01-29T17:53:12;5.53;;;4.97;;